Sunday, October 21, 2018, 7:47 PM EDT
Back to Local

KFMH, Otis Air National Guard Base

Location: Mashpee, MA, United States Lat: 41.65
Local Time: 7:47 PM EDT (23:47 GMT) Lon: -70.517
Time Zone: US/Eastern Elev: 131 ft

Show me the last for .
Show Decoded

2018-10-21 19:35 METAR KFMH 212335Z AUTO 33004KT 10SM CLR 02/M04 A2998 RMK AO2 =
2018-10-21 19:15 METAR KFMH 212315Z AUTO 32003KT 10SM CLR 03/M05 A2998 RMK AO2 =
2018-10-21 18:55 METAR KFMH 212255Z AUTO 31007G12KT 10SM CLR 04/M05 A2997 RMK AO2 =
2018-10-21 18:35 METAR KFMH 212235Z AUTO 32008G14KT 10SM CLR 04/M05 A2995 RMK AO2 =
2018-10-21 18:15 METAR KFMH 212215Z AUTO 31012G17KT 10SM CLR 04/M05 A2993 RMK AO2 =
2018-10-21 17:55 METAR KFMH 212155Z AUTO 33009G15KT 10SM CLR 05/M05 A2991 RMK AO2 =
2018-10-21 17:35 METAR KFMH 212135Z AUTO 33012G19KT 10SM FEW050 06/M05 A2990 RMK AO2 =
2018-10-21 17:15 METAR KFMH 212115Z AUTO 32008G18KT 10SM BKN050 BKN055 06/M04 A2988 RMK AO2 =
2018-10-21 16:55 METAR KFMH 212055Z AUTO 32013G22KT 10SM BKN050 06/M04 A2986 RMK AO2 =
2018-10-21 16:35 METAR KFMH 212035Z AUTO 31014G21KT 10SM OVC050 07/M04 A2985 RMK AO2 =
2018-10-21 16:15 METAR KFMH 212015Z AUTO 31013G21KT 10SM OVC050 07/M04 A2983 RMK AO2 =
2018-10-21 15:55 METAR KFMH 211955Z AUTO 31007G21KT 10SM BKN048 08/M03 A2982 RMK AO2 =
2018-10-21 15:35 METAR KFMH 211935Z AUTO 33012G21KT 300V360 10SM BKN047 07/M03 A2981 RMK AO2 =
2018-10-21 15:15 METAR KFMH 211915Z AUTO 32013G24KT 10SM SCT047 08/M02 A2980 RMK AO2 =
2018-10-21 14:55 METAR KFMH 211855Z AUTO 34011G21KT 320V020 10SM BKN046 08/M02 A2979 RMK AO2 =
2018-10-21 14:35 METAR KFMH 211835Z AUTO 33013G21KT 10SM BKN045 09/M01 A2978 RMK AO2 =
2018-10-21 14:15 METAR KFMH 211815Z AUTO 33015G22KT 10SM BKN043 09/M02 A2977 RMK AO2 =
2018-10-21 13:55 METAR KFMH 211755Z AUTO 33016G24KT 10SM BKN043 08/M01 A2977 RMK AO2 =
2018-10-21 13:35 METAR KFMH 211735Z AUTO 34011G25KT 310V020 10SM CLR 08/M01 A2976 RMK AO2 =
2018-10-21 13:15 METAR KFMH 211715Z AUTO 33010G21KT 10SM CLR 07/00 A2976 RMK AO2 =
2018-10-21 12:55 METAR KFMH 211655Z AUTO 33014G26KT 10SM FEW030 FEW085 07/00 A2975 RMK AO2 =
2018-10-21 12:35 METAR KFMH 211635Z AUTO 32013G21KT 10SM FEW080 FEW090 07/02 A2975 RMK AO2 =
2018-10-21 12:15 METAR KFMH 211615Z AUTO 33015G21KT 10SM FEW080 06/02 A2975 RMK AO2 =
2018-10-21 11:55 METAR KFMH 211555Z 33010G20KT 10SM SCT025 06/03 A2975 RMK AO2 =
2018-10-21 11:35 METAR KFMH 211535Z AUTO 33010G22KT 10SM CLR 06/03 A2974 RMK AO2 =
2018-10-21 11:15 METAR KFMH 211515Z AUTO 34010G19KT 10SM -DZ CLR 05/03 A2974 RMK AO2 =
2018-10-21 10:55 METAR KFMH 211455Z AUTO 33011G21KT 300V360 8SM -RA FEW025 FEW040 FEW050 05/04
                 A2974 RMK AO2 =
2018-10-21 10:35 METAR KFMH 211435Z AUTO 33015KT 9SM -DZ FEW040 BKN055 05/03 A2973 RMK AO2 =
2018-10-21 10:15 METAR KFMH 211415Z AUTO 32019KT 10SM FEW016 FEW045 BKN055 06/04 A2972 RMK AO2 =
2018-10-21 09:55 METAR KFMH 211355Z 33012KT 300V360 10SM -RA SCT025 OVC034 06/05 A2971 RMK AO2 =
2018-10-21 09:35 METAR KFMH 211335Z 34011G24KT 5SM RA FEW018 BKN026 BKN033 06/04 A2971 RMK AO2
                 LTG DSNT SW =
2018-10-21 09:15 METAR KFMH 211315Z 33011G21KT 6SM RA BKN024 OVC029 06/05 A2969 RMK AO2 =
2018-10-21 08:55 METAR KFMH 211255Z 33014G23KT 5SM RA FEW013 BKN024 OVC030 06/06 A2968 RMK AO2 =
2018-10-21 08:35 METAR KFMH 211235Z AUTO 33011G18KT 2 1/2SM -RA FEW015 BKN025 OVC031 07/06 A2967
                 RMK AO2 =
2018-10-21 08:15 METAR KFMH 211215Z 32013KT 2 1/2SM RA BKN027 OVC034 07/07 A2966 RMK AO2 =
2018-10-21 07:55 METAR KFMH 211155Z AUTO 33010KT 5SM RA FEW025 BKN030 OVC037 07/07 A2965 RMK AO2
                 =
2018-10-21 07:35 METAR KFMH 211135Z AUTO 32007G14KT 4SM RA FEW028 OVC038 08/07 A2964 RMK AO2 LTG
                 DSNT S =
2018-10-21 07:15 METAR KFMH 211115Z AUTO 33007KT 5SM -RA 08/07 A2962 RMK AO2 =
2018-10-21 07:00 METAR KFMH 211100Z 35010KT 7SM -DZ FEW025 OVC037 08/06 A2961 =
2018-10-21 05:55 METAR KFMH 210955Z 34010G18KT 10SM OVC040 08/05 A2959 =
2018-10-21 04:55 METAR KFMH 210855Z 34006KT 10SM BKN045 08/05 A2956 =
2018-10-21 00:45 METAR KFMH 210445Z 00000KT 10SM SKC 04/04 A2959 =
2018-10-20 23:45 METAR KFMH 210345Z 00000KT 10SM SKC 06/06 A2961 =
2018-10-20 22:45 METAR KFMH 210245Z 00000KT 10SM FEW080 07/07 A2961 =
2018-10-20 21:45 METAR KFMH 210145Z 00000KT 10SM BKN070 08/08 A2960 =
2018-10-20 19:55 METAR KFMH 202355Z AUTO 00000KT 9SM CLR 10/09 A2960 RMK AO2 =

Support USWX by starting your Amazon purchase here.